createdAt,value
2019-03-28T00:01:23.390Z,72.00
2019-03-28T00:04:12.277Z,71.73
2019-03-28T00:07:01.096Z,71.54
2019-03-28T00:09:49.883Z,72.12
2019-03-28T00:12:38.704Z,73.10
2019-03-28T00:15:27.496Z,72.66
2019-03-28T00:18:16.320Z,72.83
2019-03-28T00:21:24.203Z,72.28
2019-03-28T00:24:32.040Z,72.53
2019-03-28T00:27:21.224Z,72.13
2019-03-28T00:33:05.647Z,72.38
2019-03-28T00:35:47.267Z,72.16
2019-03-28T00:38:36.095Z,72.02
2019-03-28T00:41:24.919Z,72.01
2019-03-28T00:44:13.710Z,71.98
2019-03-28T00:47:02.529Z,71.88
2019-03-28T00:49:51.329Z,72.24
2019-03-28T00:52:40.147Z,73.62
2019-03-28T00:55:28.970Z,73.98
2019-03-28T00:58:17.744Z,73.47
2019-03-28T01:01:06.620Z,73.27
2019-03-28T01:06:49.624Z,73.10
2019-03-28T01:09:38.418Z,73.18
2019-03-28T01:12:27.587Z,73.52
2019-03-28T01:15:16.362Z,73.51
2019-03-28T01:18:05.185Z,73.36
2019-03-28T01:20:54.270Z,72.92
2019-03-28T01:23:43.093Z,73.01
2019-03-28T01:26:31.894Z,72.91
2019-03-28T01:29:20.746Z,73.39
2019-03-28T01:32:09.546Z,73.16
2019-03-28T01:34:58.384Z,73.22
2019-03-28T01:37:39.794Z,73.61
2019-03-28T01:40:28.603Z,73.62
2019-03-28T01:43:17.411Z,73.39
2019-03-28T01:46:06.526Z,73.45
2019-03-28T01:48:55.329Z,73.68
2019-03-28T01:51:44.139Z,74.17
2019-03-28T01:54:32.950Z,73.38
2019-03-28T01:57:21.750Z,73.50
2019-03-28T02:00:31.478Z,73.37
2019-03-28T02:03:20.278Z,73.38
2019-03-28T02:06:09.267Z,73.68
2019-03-28T02:08:59.615Z,74.44
2019-03-28T02:11:48.435Z,74.50
2019-03-28T02:14:37.232Z,74.07
2019-03-28T02:17:26.050Z,73.76
2019-03-28T02:20:15.004Z,74.09
2019-03-28T02:23:03.830Z,74.56
2019-03-28T02:25:52.633Z,74.33
2019-03-28T02:28:41.465Z,74.24
2019-03-28T02:31:30.265Z,74.22
2019-03-28T02:34:19.077Z,74.26
2019-03-28T02:37:00.521Z,74.22
2019-03-28T02:39:49.354Z,73.84
2019-03-28T02:42:39.889Z,74.22
2019-03-28T02:45:29.917Z,74.17
2019-03-28T02:48:19.175Z,74.08
2019-03-28T02:51:07.988Z,73.73
2019-03-28T02:54:15.829Z,73.64
2019-03-28T02:57:04.684Z,74.11
2019-03-28T02:59:54.654Z,74.12
2019-03-28T03:02:44.082Z,74.26
2019-03-28T03:05:32.866Z,74.74
2019-03-28T03:08:21.675Z,74.72
2019-03-28T03:11:10.476Z,74.63
2019-03-28T03:13:59.281Z,74.68
2019-03-28T03:16:48.877Z,74.71
2019-03-28T03:19:38.611Z,74.80
2019-03-28T03:22:28.607Z,74.96
2019-03-28T03:25:18.274Z,75.28
2019-03-28T03:28:07.100Z,75.45
2019-03-28T03:30:55.929Z,75.29
2019-03-28T03:33:44.707Z,75.48
2019-03-28T03:36:26.613Z,75.22
2019-03-28T03:39:15.410Z,74.85
2019-03-28T03:42:04.225Z,74.82
2019-03-28T03:44:53.023Z,74.80
2019-03-28T03:47:41.893Z,74.72
2019-03-28T03:50:30.777Z,74.88
2019-03-28T03:53:19.668Z,75.47
2019-03-28T03:56:08.448Z,75.59
2019-03-28T04:01:51.609Z,75.71
2019-03-28T04:04:40.434Z,76.17
2019-03-28T04:07:29.228Z,76.33
2019-03-28T04:10:18.043Z,76.33
2019-03-28T04:13:06.861Z,76.19
2019-03-28T04:15:55.687Z,76.05
2019-03-28T04:18:44.471Z,75.91
2019-03-28T04:24:27.780Z,74.80
2019-03-28T04:27:16.598Z,74.84
2019-03-28T04:30:26.302Z,75.66
2019-03-28T04:33:15.119Z,75.62
2019-03-28T04:35:56.570Z,75.65
2019-03-28T04:38:45.385Z,76.37
2019-03-28T04:41:34.198Z,76.90
2019-03-28T04:47:17.543Z,76.73
2019-03-28T04:53:21.841Z,76.29
2019-03-28T04:56:10.990Z,76.12
2019-03-28T04:58:59.806Z,75.97
2019-03-28T05:02:01.031Z,75.37
2019-03-28T05:04:39.234Z,75.41
2019-03-28T05:07:28.055Z,75.32
2019-03-28T05:13:11.536Z,75.43
2019-03-28T05:16:00.401Z,75.25
2019-03-28T05:18:49.197Z,75.00
2019-03-28T05:21:38.020Z,75.11
2019-03-28T05:24:26.814Z,75.61
2019-03-28T05:27:16.727Z,76.40
2019-03-28T05:30:27.070Z,76.72
2019-03-28T05:33:15.914Z,76.62
2019-03-28T05:36:04.714Z,76.20
2019-03-28T05:38:46.387Z,75.95
2019-03-28T05:41:35.184Z,75.49
2019-03-28T05:44:23.997Z,75.41
2019-03-28T05:47:12.829Z,74.90
2019-03-28T05:50:01.656Z,74.90
2019-03-28T05:52:50.486Z,74.92
2019-03-28T05:55:39.353Z,74.59
2019-03-28T05:58:28.181Z,74.24
2019-03-28T06:01:17.056Z,74.37
2019-03-28T06:04:05.881Z,74.80
2019-03-28T06:06:54.701Z,75.02
2019-03-28T06:09:44.517Z,75.37
2019-03-28T06:12:34.056Z,75.33
2019-03-28T06:15:22.841Z,74.59
2019-03-28T06:18:30.691Z,74.58
2019-03-28T06:21:19.502Z,74.40
2019-03-28T06:24:08.323Z,74.37
2019-03-28T06:26:57.222Z,74.22
2019-03-28T06:29:46.018Z,74.32
2019-03-28T06:32:42.879Z,73.91
2019-03-28T06:35:25.368Z,73.69
2019-03-28T06:38:07.080Z,73.63
2019-03-28T06:40:55.912Z,72.87
2019-03-28T06:43:44.707Z,72.67
2019-03-28T06:46:33.522Z,72.79
2019-03-28T06:49:41.340Z,72.53
2019-03-28T06:52:30.164Z,72.19
2019-03-28T06:55:18.957Z,71.85
2019-03-28T06:58:07.776Z,71.73
2019-03-28T07:00:56.573Z,70.72
2019-03-28T07:03:47.376Z,70.13
2019-03-28T07:06:35.921Z,68.72
2019-03-28T07:09:24.750Z,69.03
2019-03-28T07:12:13.554Z,68.64
2019-03-28T07:15:02.680Z,69.00
2019-03-28T07:17:51.533Z,68.94
2019-03-28T07:20:40.344Z,68.96
2019-03-28T07:23:29.223Z,68.88
2019-03-28T07:26:18.026Z,68.80
2019-03-28T07:29:06.853Z,68.15
2019-03-28T07:31:55.655Z,70.26
2019-03-28T07:34:44.470Z,70.95
2019-03-28T07:37:28.019Z,70.59
2019-03-28T07:40:16.743Z,69.89
2019-03-28T07:43:05.643Z,69.50
2019-03-28T07:45:54.475Z,68.94
2019-03-28T07:49:02.316Z,69.04
2019-03-28T07:51:51.218Z,68.85
2019-03-28T07:54:40.064Z,68.28
2019-03-28T07:57:28.869Z,68.35
2019-03-28T08:00:17.751Z,67.64
2019-03-28T08:03:06.610Z,66.85
2019-03-28T08:05:55.383Z,66.19
2019-03-28T08:08:44.356Z,65.25
2019-03-28T08:11:34.911Z,65.81
2019-03-28T08:14:25.283Z,65.29
2019-03-28T08:17:14.166Z,64.73
2019-03-28T08:23:36.543Z,64.12
2019-03-28T08:26:25.710Z,64.14
2019-03-28T08:29:14.528Z,63.75
2019-03-28T08:34:59.312Z,63.42
2019-03-28T08:37:40.903Z,63.17
2019-03-28T08:40:49.067Z,62.47
2019-03-28T08:43:37.871Z,60.26
2019-03-28T08:46:26.704Z,60.52
2019-03-28T08:49:15.512Z,59.78
2019-03-28T08:52:04.343Z,59.43
2019-03-28T08:54:53.151Z,59.30
2019-03-28T08:57:41.971Z,58.73
2019-03-28T09:00:35.264Z,58.47
2019-03-28T09:03:21.650Z,58.38
2019-03-28T09:06:10.457Z,58.28
2019-03-28T09:08:59.274Z,57.08
2019-03-28T09:11:48.090Z,56.47
2019-03-28T09:14:37.077Z,56.64
2019-03-28T09:17:27.459Z,58.12
2019-03-28T09:20:16.353Z,57.18
2019-03-28T09:23:05.234Z,56.26
2019-03-28T09:25:54.064Z,57.39
2019-03-28T09:28:42.865Z,56.83
2019-03-28T09:31:31.731Z,57.40
2019-03-28T09:34:20.511Z,57.28
2019-03-28T09:37:02.050Z,56.15
2019-03-28T09:39:50.853Z,56.33
2019-03-28T09:42:39.678Z,56.60
2019-03-28T09:45:28.568Z,56.29
2019-03-28T09:48:17.373Z,56.71
2019-03-28T09:51:25.266Z,55.97
2019-03-28T09:54:14.040Z,54.75
2019-03-28T09:57:02.870Z,54.91
2019-03-28T09:59:51.672Z,54.92
2019-03-28T10:02:43.877Z,54.75
2019-03-28T10:05:31.086Z,55.43
2019-03-28T10:08:19.915Z,54.20
2019-03-28T10:11:08.829Z,53.28
2019-03-28T10:13:57.623Z,51.98
2019-03-28T10:16:46.524Z,52.11
2019-03-28T10:19:35.351Z,50.71
2019-03-28T10:22:24.179Z,49.94
2019-03-28T10:25:14.494Z,51.04
2019-03-28T10:28:03.768Z,50.25
2019-03-28T10:30:45.514Z,51.70
2019-03-28T10:33:34.313Z,53.15
2019-03-28T10:36:16.447Z,53.85
2019-03-28T10:39:26.175Z,55.20
2019-03-28T10:42:14.995Z,55.47
2019-03-28T10:48:19.475Z,54.08
2019-03-28T10:51:09.353Z,52.70
2019-03-28T10:53:58.176Z,52.06
2019-03-28T10:56:52.130Z,50.63
2019-03-28T10:59:37.514Z,49.87
2019-03-28T11:02:28.784Z,50.60
2019-03-28T11:05:16.929Z,50.00
2019-03-28T11:08:05.736Z,51.54
2019-03-28T11:10:54.576Z,51.01
2019-03-28T11:13:43.370Z,50.35
2019-03-28T11:16:32.216Z,50.50
2019-03-28T11:19:21.025Z,51.49
2019-03-28T11:22:16.819Z,52.62
2019-03-28T11:25:26.557Z,52.97
2019-03-28T11:28:15.832Z,51.85
2019-03-28T11:31:05.943Z,52.41
2019-03-28T11:33:54.720Z,52.79
2019-03-28T11:36:43.548Z,52.43
2019-03-28T11:39:24.899Z,52.36
2019-03-28T11:42:13.736Z,53.62
2019-03-28T11:45:02.615Z,53.75
2019-03-28T11:47:51.439Z,53.40
2019-03-28T11:50:40.299Z,53.56
2019-03-28T11:53:29.078Z,53.64
2019-03-28T11:56:17.880Z,53.13
2019-03-28T11:59:07.025Z,52.85
2019-03-28T12:02:02.101Z,53.50
2019-03-28T12:04:46.373Z,52.67
2019-03-28T12:07:35.178Z,52.18
2019-03-28T12:10:24.303Z,51.63
2019-03-28T12:13:13.089Z,50.57
2019-03-28T12:16:01.920Z,50.56
2019-03-28T12:18:50.745Z,50.65
2019-03-28T12:21:39.576Z,50.24
2019-03-28T12:24:47.420Z,49.94
2019-03-28T12:27:36.381Z,49.95
2019-03-28T12:30:25.185Z,51.06
2019-03-28T12:33:14.010Z,52.87
2019-03-28T12:36:02.823Z,53.89
2019-03-28T12:38:51.645Z,53.60
2019-03-28T12:41:40.462Z,53.53
2019-03-28T12:44:29.287Z,52.97
2019-03-28T12:47:18.098Z,52.60
2019-03-28T12:50:27.848Z,52.66
2019-03-28T12:53:16.651Z,52.42
2019-03-28T12:56:05.500Z,52.84
2019-03-28T12:58:54.293Z,52.69
2019-03-28T13:04:36.927Z,51.57
2019-03-28T13:07:25.774Z,50.51
2019-03-28T13:10:33.904Z,49.98
2019-03-28T13:13:22.720Z,51.07
2019-03-28T13:16:11.537Z,50.76
2019-03-28T13:19:00.361Z,51.53
2019-03-28T13:21:49.173Z,51.90
2019-03-28T13:24:38.060Z,51.79
2019-03-28T13:27:26.887Z,51.44
2019-03-28T13:30:15.955Z,50.66
2019-03-28T13:32:57.968Z,49.78
2019-03-28T13:35:46.807Z,49.48
2019-03-28T13:38:35.616Z,49.95
2019-03-28T13:41:24.444Z,49.29
2019-03-28T13:44:13.245Z,49.63
2019-03-28T13:47:02.064Z,50.09
2019-03-28T13:49:50.891Z,50.07
2019-03-28T13:52:40.052Z,50.04
2019-03-28T13:55:28.875Z,49.07
2019-03-28T13:58:17.706Z,49.23
2019-03-28T14:01:06.534Z,48.96
2019-03-28T14:03:55.353Z,49.67
2019-03-28T14:06:44.172Z,49.49
2019-03-28T14:09:32.972Z,49.35
2019-03-28T14:12:23.311Z,50.33
2019-03-28T14:15:12.492Z,50.61
2019-03-28T14:18:20.329Z,50.37
2019-03-28T14:24:16.904Z,49.58
2019-03-28T14:27:05.722Z,49.71
2019-03-28T14:29:54.524Z,50.59
2019-03-28T14:32:34.334Z,50.93
2019-03-28T14:35:23.139Z,51.47
2019-03-28T14:38:12.036Z,51.91
2019-03-28T14:41:00.936Z,52.94
2019-03-28T14:43:49.795Z,52.15
2019-03-28T14:46:38.640Z,53.19
2019-03-28T14:49:27.592Z,52.39
2019-03-28T14:52:16.459Z,52.21
2019-03-28T14:55:26.222Z,52.61
2019-03-28T14:58:15.283Z,52.10
2019-03-28T15:01:04.105Z,51.82
2019-03-28T15:03:53.154Z,52.01
2019-03-28T15:06:42.049Z,52.30
2019-03-28T15:09:31.224Z,52.17
2019-03-28T15:12:39.175Z,53.51
2019-03-28T15:15:28.056Z,53.67
2019-03-28T15:18:09.809Z,53.78
2019-03-28T15:20:58.706Z,53.09
2019-03-28T15:23:47.534Z,54.21
2019-03-28T15:26:36.540Z,55.73
2019-03-28T15:29:27.013Z,55.45
2019-03-28T15:32:34.948Z,55.73
2019-03-28T15:35:23.855Z,55.67
2019-03-28T15:38:13.664Z,55.54
2019-03-28T15:41:03.651Z,55.53
2019-03-28T15:44:11.590Z,55.44
2019-03-28T15:47:00.477Z,55.73
2019-03-28T15:49:49.361Z,55.58
2019-03-28T15:55:45.929Z,55.29
2019-03-28T15:58:34.781Z,55.82
2019-03-28T16:01:23.634Z,56.30
2019-03-28T16:04:12.454Z,56.62
2019-03-28T16:07:01.364Z,57.13
2019-03-28T16:09:50.207Z,56.69
2019-03-28T16:12:39.416Z,56.80
2019-03-28T16:15:28.404Z,56.95
2019-03-28T16:18:17.289Z,57.21
2019-03-28T16:20:59.224Z,57.70
2019-03-28T16:23:48.116Z,57.86
2019-03-28T16:26:36.895Z,58.11
2019-03-28T16:29:25.710Z,58.42
2019-03-28T16:32:16.204Z,58.66
2019-03-28T16:35:25.969Z,59.04
2019-03-28T16:38:14.776Z,58.99
2019-03-28T16:41:03.622Z,59.04
2019-03-28T16:43:52.446Z,58.90
2019-03-28T16:49:35.331Z,59.29
2019-03-28T16:52:24.163Z,59.35
2019-03-28T16:55:25.550Z,59.57
2019-03-28T16:58:03.536Z,59.65
2019-03-28T17:00:52.337Z,59.45
2019-03-28T17:03:41.166Z,59.89
2019-03-28T17:06:30.041Z,60.00
2019-03-28T17:09:18.863Z,60.58
2019-03-28T17:12:07.737Z,60.29
2019-03-28T17:14:56.587Z,60.79
2019-03-28T17:17:45.388Z,61.06
2019-03-28T17:20:27.005Z,60.55
2019-03-28T17:23:15.898Z,60.87
2019-03-28T17:26:04.764Z,61.16
2019-03-28T17:28:53.598Z,61.24
2019-03-28T17:31:42.468Z,61.52
2019-03-28T17:34:35.233Z,61.74
2019-03-28T17:37:21.787Z,62.19
2019-03-28T17:40:10.680Z,62.16
2019-03-28T17:43:18.593Z,62.24
2019-03-28T17:49:16.870Z,62.42
2019-03-28T17:52:05.675Z,62.34
2019-03-28T17:54:54.533Z,62.61
2019-03-28T17:58:02.469Z,63.14
2019-03-28T18:00:51.300Z,62.94
2019-03-28T18:03:40.091Z,63.45
2019-03-28T18:06:29.040Z,63.52
2019-03-28T18:09:17.872Z,64.12
2019-03-28T18:12:06.690Z,64.01
2019-03-28T18:14:55.513Z,63.82
2019-03-28T18:17:44.321Z,63.82
2019-03-28T18:20:25.615Z,63.92
2019-03-28T18:23:14.455Z,63.84
2019-03-28T18:26:03.277Z,63.73
2019-03-28T18:28:52.166Z,63.46
2019-03-28T18:31:50.397Z,63.53
2019-03-28T18:37:25.747Z,63.55
2019-03-28T18:40:14.644Z,63.82
2019-03-28T18:43:03.513Z,63.92
2019-03-28T18:45:52.424Z,63.84
2019-03-28T18:48:41.224Z,63.73
2019-03-28T18:51:30.255Z,63.49
2019-03-28T18:54:20.332Z,63.62
2019-03-28T18:57:09.586Z,63.42
2019-03-28T18:59:58.382Z,63.18
2019-03-28T19:02:47.211Z,64.00
2019-03-28T19:05:36.098Z,63.49
2019-03-28T19:08:43.940Z,63.35
2019-03-28T19:11:25.932Z,63.45
2019-03-28T19:13:55.427Z,63.34
2019-03-28T19:16:44.244Z,63.47
2019-03-28T19:19:39.225Z,63.55
2019-03-28T19:22:23.888Z,63.75
2019-03-28T19:25:14.394Z,64.29
2019-03-28T19:28:03.267Z,65.28
2019-03-28T19:30:52.078Z,65.76
2019-03-28T19:33:41.008Z,65.21
2019-03-28T19:36:31.504Z,65.11
2019-03-28T19:39:39.688Z,64.94
2019-03-28T19:42:28.564Z,64.78
2019-03-28T19:45:38.369Z,64.77
2019-03-28T19:48:27.397Z,64.56
2019-03-28T19:51:16.216Z,64.72
2019-03-28T19:54:05.136Z,65.03
2019-03-28T19:56:57.173Z,65.68
2019-03-28T19:59:44.485Z,65.61
2019-03-28T20:02:33.844Z,66.41
2019-03-28T20:05:24.155Z,65.98
2019-03-28T20:08:15.783Z,66.48
2019-03-28T20:13:55.846Z,66.53
2019-03-28T20:16:44.655Z,66.86
2019-03-28T20:19:33.470Z,66.68
2019-03-28T20:22:22.291Z,66.72
2019-03-28T20:25:11.246Z,66.98
2019-03-28T20:28:00.116Z,67.24
2019-03-28T20:30:48.939Z,66.82
2019-03-28T20:33:37.895Z,66.46
2019-03-28T20:36:37.504Z,66.09
2019-03-28T20:39:18.789Z,66.02
2019-03-28T20:42:08.803Z,65.77
2019-03-28T20:44:58.269Z,65.35
2019-03-28T20:47:47.104Z,65.58
2019-03-28T20:50:35.910Z,64.99
2019-03-28T20:53:24.811Z,66.25
2019-03-28T20:56:13.615Z,65.94
2019-03-28T20:59:02.434Z,66.59
2019-03-28T21:01:51.231Z,66.16
2019-03-28T21:04:40.119Z,65.98
2019-03-28T21:07:28.925Z,66.78
2019-03-28T21:10:37.073Z,66.56
2019-03-28T21:13:18.385Z,66.20
2019-03-28T21:21:56.143Z,65.86
2019-03-28T21:24:45.098Z,65.81
2019-03-28T21:27:33.913Z,65.60
2019-03-28T21:30:22.780Z,65.31
2019-03-28T21:33:14.732Z,65.34
2019-03-28T21:36:02.130Z,65.03
2019-03-28T21:38:50.939Z,65.10
2019-03-28T21:41:39.801Z,65.23
2019-03-28T21:44:28.614Z,65.55
2019-03-28T21:47:17.438Z,65.60
2019-03-28T21:50:27.677Z,65.18
2019-03-28T21:53:19.974Z,65.08
2019-03-28T21:59:17.683Z,65.13
2019-03-28T22:05:35.267Z,65.18
2019-03-28T22:08:24.080Z,65.13
2019-03-28T22:11:12.904Z,65.22
2019-03-28T22:13:54.244Z,65.24
2019-03-28T22:16:43.075Z,65.22
2019-03-28T22:19:31.883Z,65.33
2019-03-28T22:22:20.695Z,65.59
2019-03-28T22:28:38.178Z,65.85
2019-03-28T22:31:28.451Z,65.73
2019-03-28T22:34:17.289Z,65.50
2019-03-28T22:37:06.077Z,65.90
2019-03-28T22:39:54.908Z,65.62
2019-03-28T22:42:43.710Z,65.91
2019-03-28T22:45:32.548Z,65.88
2019-03-28T22:48:21.354Z,65.94
2019-03-28T22:51:10.252Z,65.85
2019-03-28T22:53:59.045Z,66.02
2019-03-28T22:56:47.874Z,65.83
2019-03-28T22:59:36.670Z,66.19
2019-03-28T23:08:14.019Z,65.97
2019-03-28T23:11:02.813Z,65.78
2019-03-28T23:13:44.683Z,65.82
2019-03-28T23:16:33.595Z,65.58
2019-03-28T23:19:22.461Z,65.51
2019-03-28T23:22:11.388Z,65.28
2019-03-28T23:25:00.356Z,65.25
2019-03-28T23:27:49.239Z,65.30
2019-03-28T23:30:38.106Z,64.92
2019-03-28T23:33:27.346Z,64.77
2019-03-28T23:36:16.239Z,64.49
2019-03-28T23:39:26.367Z,64.14
2019-03-28T23:42:17.759Z,63.93
2019-03-28T23:45:26.741Z,63.70
2019-03-28T23:48:15.591Z,63.22
2019-03-28T23:51:04.447Z,63.31
2019-03-28T23:53:53.463Z,63.36
2019-03-28T23:56:42.367Z,63.46
